createdAt,value
2022-10-27T00:00:12.786Z,97826.00
2022-10-27T00:02:39.800Z,97850.22
2022-10-27T00:05:06.534Z,97851.56
2022-10-27T00:07:35.653Z,97852.38
2022-10-27T00:10:02.186Z,97819.47
2022-10-27T00:12:30.659Z,97857.69
2022-10-27T00:14:57.219Z,97853.84
2022-10-27T00:17:23.892Z,97850.38
2022-10-27T00:19:50.520Z,97860.53
2022-10-27T00:22:17.127Z,97843.53
2022-10-27T00:24:43.808Z,97837.63
2022-10-27T00:27:10.349Z,97871.28
2022-10-27T00:29:36.909Z,97839.75
2022-10-27T00:32:03.547Z,97887.91
2022-10-27T00:34:30.352Z,97863.94
2022-10-27T00:36:56.896Z,97869.63
2022-10-27T00:39:23.479Z,97853.19
2022-10-27T00:41:50.157Z,97866.25
2022-10-27T00:44:36.457Z,97875.09
2022-10-27T00:47:25.559Z,97879.34
2022-10-27T00:50:15.496Z,97871.81
2022-10-27T00:53:00.264Z,97872.03
2022-10-27T00:55:30.848Z,97877.41
2022-10-27T00:57:58.112Z,97872.03
2022-10-27T01:00:24.938Z,97878.00
2022-10-27T01:02:51.868Z,97873.19
2022-10-27T01:05:20.375Z,97871.50
2022-10-27T01:07:47.621Z,97880.59
2022-10-27T01:10:14.495Z,97886.75
2022-10-27T01:12:41.241Z,97889.22
2022-10-27T01:15:08.521Z,97923.31
2022-10-27T01:17:41.124Z,97882.13
2022-10-27T01:20:22.529Z,97899.78
2022-10-27T01:23:26.635Z,97901.16
2022-10-27T01:26:08.240Z,97905.72
2022-10-27T01:29:05.294Z,97893.47
2022-10-27T01:31:58.258Z,97887.84
2022-10-27T01:34:36.462Z,97912.19
2022-10-27T01:37:15.738Z,97910.03
2022-10-27T01:40:04.351Z,97893.97
2022-10-27T01:43:04.528Z,97909.06
2022-10-27T01:45:32.682Z,97869.25
2022-10-27T01:47:59.403Z,97906.34
2022-10-27T01:51:00.563Z,97880.69
2022-10-27T01:53:29.563Z,97885.44
2022-10-27T01:56:02.307Z,97900.94
2022-10-27T01:58:52.990Z,97888.75
2022-10-27T02:01:32.669Z,97873.38
2022-10-27T02:04:35.063Z,97864.28
2022-10-27T02:07:30.073Z,97882.00
2022-10-27T02:10:19.772Z,97898.13
2022-10-27T02:12:46.390Z,97889.31
2022-10-27T02:15:32.559Z,97873.16
2022-10-27T02:18:15.549Z,97907.13
2022-10-27T02:20:44.204Z,97895.28
2022-10-27T02:23:14.186Z,97896.34
2022-10-27T02:25:50.639Z,97895.56
2022-10-27T02:28:17.888Z,97885.00
2022-10-27T02:30:44.550Z,97909.91
2022-10-27T02:33:11.241Z,97911.03
2022-10-27T02:35:37.879Z,97892.13
2022-10-27T02:38:04.349Z,97900.19
2022-10-27T02:40:30.984Z,97905.09
2022-10-27T02:42:57.607Z,97912.06
2022-10-27T02:45:24.195Z,97923.38
2022-10-27T02:47:50.691Z,97896.72
2022-10-27T02:50:17.366Z,97908.59
2022-10-27T02:52:44.152Z,97893.38
2022-10-27T02:55:10.821Z,97911.66
2022-10-27T02:57:37.384Z,97905.78
2022-10-27T03:00:05.382Z,97902.84
2022-10-27T03:02:32.159Z,97921.91
2022-10-27T03:04:58.650Z,97917.53
2022-10-27T03:07:25.170Z,97907.63
2022-10-27T03:09:51.783Z,97899.28
2022-10-27T03:12:18.434Z,97904.16
2022-10-27T03:14:45.141Z,97924.81
2022-10-27T03:17:11.995Z,97914.25
2022-10-27T03:19:38.651Z,97928.25
2022-10-27T03:22:05.329Z,97908.66
2022-10-27T03:24:31.953Z,97903.28
2022-10-27T03:26:58.614Z,97903.34
2022-10-27T03:29:25.184Z,97926.41
2022-10-27T03:31:51.839Z,97911.34
2022-10-27T03:34:20.289Z,97919.22
2022-10-27T03:36:48.113Z,97916.25
2022-10-27T03:39:14.891Z,97911.66
2022-10-27T03:41:41.524Z,97903.28
2022-10-27T03:44:08.051Z,97896.59
2022-10-27T03:46:34.664Z,97896.84
2022-10-27T03:49:01.261Z,97896.06
2022-10-27T03:51:27.956Z,97927.00
2022-10-27T03:53:56.235Z,97919.28
2022-10-27T03:56:22.852Z,97897.31
2022-10-27T03:58:49.506Z,97927.94
2022-10-27T04:01:16.270Z,97918.28
2022-10-27T04:03:42.886Z,97924.78
2022-10-27T04:06:09.456Z,97921.31
2022-10-27T04:08:36.069Z,97909.22
2022-10-27T04:11:02.691Z,97901.38
2022-10-27T04:13:30.794Z,97905.66
2022-10-27T04:16:01.113Z,97912.91
2022-10-27T04:18:27.623Z,97930.63
2022-10-27T04:20:54.169Z,97931.72
2022-10-27T04:23:20.757Z,97931.44
2022-10-27T04:25:47.376Z,97920.16
2022-10-27T04:28:14.102Z,97919.09
2022-10-27T04:30:40.795Z,97931.72
2022-10-27T04:33:07.471Z,97949.69
2022-10-27T04:38:05.553Z,97926.25
2022-10-27T04:40:32.122Z,97934.38
2022-10-27T04:42:58.793Z,97911.47
2022-10-27T04:45:25.986Z,97909.59
2022-10-27T04:47:52.796Z,97938.00
2022-10-27T04:50:19.654Z,97941.41
2022-10-27T04:52:56.686Z,97937.69
2022-10-27T04:55:23.909Z,97931.47
2022-10-27T04:57:50.460Z,97936.31
2022-10-27T05:00:18.019Z,97952.41
2022-10-27T05:02:45.044Z,97929.31
2022-10-27T05:05:11.675Z,97947.22
2022-10-27T05:07:38.311Z,97949.16
2022-10-27T05:10:05.277Z,97926.63
2022-10-27T05:12:31.903Z,97948.59
2022-10-27T05:14:58.602Z,97922.88
2022-10-27T05:17:25.313Z,97962.56
2022-10-27T05:19:52.031Z,97946.97
2022-10-27T05:22:18.746Z,97943.66
2022-10-27T05:24:45.405Z,97944.72
2022-10-27T05:27:11.967Z,97948.03
2022-10-27T05:29:38.650Z,97952.84
2022-10-27T05:32:05.233Z,98035.00
2022-10-27T05:34:31.836Z,97968.56
2022-10-27T05:36:58.362Z,97981.94
2022-10-27T05:39:25.872Z,97957.19
2022-10-27T05:41:52.529Z,97950.47
2022-10-27T05:44:19.253Z,97956.06
2022-10-27T05:46:46.385Z,97956.66
2022-10-27T05:49:13.054Z,97961.63
2022-10-27T05:51:40.699Z,97961.94
2022-10-27T05:54:07.191Z,97973.16
2022-10-27T05:56:33.718Z,97994.88
2022-10-27T05:59:00.293Z,97985.47
2022-10-27T06:01:27.040Z,97980.34
2022-10-27T06:03:53.642Z,97968.81
2022-10-27T06:06:20.283Z,97973.59
2022-10-27T06:08:46.825Z,97978.03
2022-10-27T06:11:13.353Z,97965.94
2022-10-27T06:13:40.060Z,97986.56
2022-10-27T06:16:08.320Z,97986.16
2022-10-27T06:18:37.345Z,97999.09
2022-10-27T06:21:03.993Z,97972.25
2022-10-27T06:23:30.537Z,97990.03
2022-10-27T06:25:57.118Z,97989.31
2022-10-27T06:28:23.657Z,97985.22
2022-10-27T06:30:50.275Z,98004.56
2022-10-27T06:33:16.776Z,97983.44
2022-10-27T06:35:45.423Z,97995.72
2022-10-27T06:38:12.008Z,97984.75
2022-10-27T06:40:38.558Z,97998.97
2022-10-27T06:43:08.785Z,97959.28
2022-10-27T06:45:35.873Z,98008.31
2022-10-27T06:48:02.492Z,98001.72
2022-10-27T06:50:29.341Z,98000.94
2022-10-27T06:52:56.732Z,97964.97
2022-10-27T06:55:23.345Z,98005.44
2022-10-27T06:57:50.247Z,98018.66
2022-10-27T07:00:17.789Z,97995.63
2022-10-27T07:02:44.529Z,97997.63
2022-10-27T07:05:11.152Z,98030.19
2022-10-27T07:07:37.834Z,98027.38
2022-10-27T07:10:05.802Z,98009.75
2022-10-27T07:12:32.543Z,98034.72
2022-10-27T07:14:59.109Z,98033.25
2022-10-27T07:17:25.637Z,98037.13
2022-10-27T07:19:52.173Z,98066.06
2022-10-27T07:22:19.033Z,98039.94
2022-10-27T07:24:45.537Z,98042.53
2022-10-27T07:27:12.237Z,98049.91
2022-10-27T07:29:38.712Z,98043.25
2022-10-27T07:32:05.370Z,98043.31
2022-10-27T07:34:32.037Z,98043.91
2022-10-27T07:37:09.101Z,98041.28
2022-10-27T07:39:43.381Z,98066.66
2022-10-27T07:45:04.767Z,98016.66
2022-10-27T07:47:31.583Z,98050.41
2022-10-27T07:49:58.350Z,98056.66
2022-10-27T07:52:24.989Z,98028.09
2022-10-27T07:54:51.589Z,98051.06
2022-10-27T07:57:18.690Z,98038.72
2022-10-27T07:59:45.637Z,98025.53
2022-10-27T08:02:12.244Z,98007.00
2022-10-27T08:04:38.921Z,98040.19
2022-10-27T08:07:05.591Z,98029.94
2022-10-27T08:09:32.303Z,98038.78
2022-10-27T08:11:59.607Z,98016.00
2022-10-27T08:14:26.120Z,98044.09
2022-10-27T08:16:52.699Z,98036.25
2022-10-27T08:19:19.344Z,98028.69
2022-10-27T08:21:45.958Z,98056.72
2022-10-27T08:26:39.230Z,98059.72
2022-10-27T08:29:06.122Z,98034.88
2022-10-27T08:31:32.722Z,98054.59
2022-10-27T08:34:00.189Z,98057.84
2022-10-27T08:36:27.136Z,98041.91
2022-10-27T08:38:53.893Z,98041.09
2022-10-27T08:41:34.691Z,98038.09
2022-10-27T08:44:22.656Z,98048.88
2022-10-27T08:46:51.663Z,98053.94
2022-10-27T08:49:26.162Z,98067.38
2022-10-27T08:51:52.726Z,98056.25
2022-10-27T08:54:19.856Z,98048.66
2022-10-27T08:56:46.768Z,98069.97
2022-10-27T08:59:18.651Z,98048.25
2022-10-27T09:02:13.341Z,98060.66
2022-10-27T09:05:15.046Z,98035.81
2022-10-27T09:08:06.141Z,98047.56
2022-10-27T09:11:12.148Z,98051.25
2022-10-27T09:14:08.040Z,98044.84
2022-10-27T09:16:43.484Z,98036.25
2022-10-27T09:19:13.959Z,98054.81
2022-10-27T09:21:41.500Z,98060.53
2022-10-27T09:24:14.227Z,98032.78
2022-10-27T09:26:41.425Z,98043.91
2022-10-27T09:29:28.820Z,98058.97
2022-10-27T09:32:13.593Z,98027.16
2022-10-27T09:34:40.852Z,98055.56
2022-10-27T09:37:14.930Z,98042.84
2022-10-27T09:39:43.770Z,98022.22
2022-10-27T09:42:10.569Z,98049.94
2022-10-27T09:44:37.283Z,98046.00
2022-10-27T09:47:04.069Z,98030.13
2022-10-27T09:49:38.395Z,98043.66
2022-10-27T09:52:12.524Z,98035.78
2022-10-27T09:54:40.202Z,98048.75
2022-10-27T09:57:10.910Z,98025.78
2022-10-27T09:59:38.241Z,98037.56
2022-10-27T10:02:31.877Z,98042.84
2022-10-27T10:04:59.580Z,98032.53
2022-10-27T10:07:37.342Z,98015.06
2022-10-27T10:10:29.710Z,98042.59
2022-10-27T10:13:02.806Z,98010.47
2022-10-27T10:15:29.942Z,98029.44
2022-10-27T10:17:58.204Z,98018.06
2022-10-27T10:23:20.605Z,98012.91
2022-10-27T10:25:47.561Z,98019.25
2022-10-27T10:28:27.299Z,98020.47
2022-10-27T10:30:54.218Z,98005.25
2022-10-27T10:33:21.786Z,98016.84
2022-10-27T10:35:49.205Z,98011.72
2022-10-27T10:38:33.151Z,97983.19
2022-10-27T10:41:03.946Z,98016.38
2022-10-27T10:43:30.654Z,98008.63
2022-10-27T10:45:58.176Z,98012.13
2022-10-27T10:48:31.070Z,98018.75
2022-10-27T10:50:58.114Z,98005.13
2022-10-27T10:53:30.725Z,98002.84
2022-10-27T10:56:00.926Z,98005.25
2022-10-27T10:58:27.986Z,98027.06
2022-10-27T11:00:56.794Z,97997.28
2022-10-27T11:03:23.841Z,98021.97
2022-10-27T11:06:01.855Z,98013.78
2022-10-27T11:08:42.127Z,97986.91
2022-10-27T11:11:20.152Z,97991.81
2022-10-27T11:13:52.784Z,97984.88
2022-10-27T11:16:19.283Z,97995.97
2022-10-27T11:18:55.551Z,97980.47
2022-10-27T11:21:32.693Z,97985.59
2022-10-27T11:24:14.070Z,97989.72
2022-10-27T11:26:49.731Z,97977.81
2022-10-27T11:29:28.360Z,97987.25
2022-10-27T11:32:16.340Z,97983.25
2022-10-27T11:34:47.128Z,97967.25
2022-10-27T11:37:53.622Z,97973.03
2022-10-27T11:40:35.508Z,97978.03
2022-10-27T11:43:06.296Z,97950.78
2022-10-27T11:45:47.474Z,97961.50
2022-10-27T11:48:23.885Z,97948.34
2022-10-27T11:51:06.859Z,97950.59
2022-10-27T11:53:37.575Z,97961.66
2022-10-27T11:56:37.221Z,97943.09
2022-10-27T11:59:23.205Z,97950.03
2022-10-27T12:01:54.277Z,97936.69
2022-10-27T12:04:26.876Z,97941.97
2022-10-27T12:07:22.145Z,97922.41
2022-10-27T12:10:10.165Z,97917.09
2022-10-27T12:12:38.254Z,97912.59
2022-10-27T12:15:11.311Z,97914.19
2022-10-27T12:17:46.529Z,97912.06
2022-10-27T12:20:23.229Z,97937.91
2022-10-27T12:22:50.208Z,97911.56
2022-10-27T12:25:24.735Z,97893.53
2022-10-27T12:27:52.936Z,97912.53
2022-10-27T12:30:21.207Z,97905.44
2022-10-27T12:32:54.483Z,97923.75
2022-10-27T12:35:35.076Z,97929.06
2022-10-27T12:38:34.322Z,97919.41
2022-10-27T12:41:16.187Z,97908.63
2022-10-27T12:43:47.333Z,97929.50
2022-10-27T12:46:54.902Z,97928.25
2022-10-27T12:49:31.155Z,97900.56
2022-10-27T12:52:17.794Z,97920.78
2022-10-27T12:57:52.113Z,97920.50
2022-10-27T13:00:20.872Z,97937.00
2022-10-27T13:03:11.831Z,97928.41
2022-10-27T13:05:48.394Z,97906.88
2022-10-27T13:08:24.931Z,97889.81
2022-10-27T13:11:06.706Z,97909.25
2022-10-27T13:13:52.343Z,97902.94
2022-10-27T13:16:37.645Z,97893.66
2022-10-27T13:19:25.665Z,97889.44
2022-10-27T13:22:04.018Z,97876.59
2022-10-27T13:24:38.149Z,97895.53
2022-10-27T13:27:07.083Z,97906.47
2022-10-27T13:29:53.161Z,97875.47
2022-10-27T13:32:19.907Z,97884.16
2022-10-27T13:35:01.769Z,97923.31
2022-10-27T13:37:46.975Z,97892.34
2022-10-27T13:40:19.765Z,97884.94
2022-10-27T13:42:56.794Z,97900.22
2022-10-27T13:45:36.073Z,97891.22
2022-10-27T13:48:08.784Z,97884.16
2022-10-27T13:50:40.050Z,97861.50
2022-10-27T13:53:15.585Z,97905.25
2022-10-27T13:55:42.973Z,97879.84
2022-10-27T13:58:19.131Z,97867.81
2022-10-27T14:01:01.236Z,97918.75
2022-10-27T14:03:59.356Z,97891.63
2022-10-27T14:06:33.936Z,97909.75
2022-10-27T14:09:34.275Z,97891.47
2022-10-27T14:12:27.945Z,97912.84
2022-10-27T14:15:16.962Z,97887.28
2022-10-27T14:17:43.873Z,97909.94
2022-10-27T14:20:28.004Z,97862.75
2022-10-27T14:23:06.513Z,97853.09
2022-10-27T14:25:33.262Z,97884.59
2022-10-27T14:28:08.754Z,97885.09
2022-10-27T14:30:35.317Z,97869.19
2022-10-27T14:33:18.066Z,97911.31
2022-10-27T14:35:44.649Z,97876.59
2022-10-27T14:38:18.521Z,97882.72
2022-10-27T14:40:45.589Z,97904.41
2022-10-27T14:43:19.031Z,97879.97
2022-10-27T14:45:45.653Z,97892.34
2022-10-27T14:48:31.885Z,97890.59
2022-10-27T14:50:59.404Z,97898.78
2022-10-27T14:53:33.291Z,97878.81
2022-10-27T14:56:07.161Z,97887.69
2022-10-27T14:58:33.697Z,97889.59
2022-10-27T15:01:00.325Z,97888.00
2022-10-27T15:03:33.641Z,97867.75
2022-10-27T15:06:00.167Z,97852.50
2022-10-27T15:08:32.110Z,97874.00
2022-10-27T15:11:00.261Z,97872.06
2022-10-27T15:13:27.115Z,97881.84
2022-10-27T15:15:54.908Z,97863.22
2022-10-27T15:18:22.666Z,97886.00
2022-10-27T15:20:49.957Z,97881.00
2022-10-27T15:23:16.903Z,97856.91
2022-10-27T15:25:43.905Z,97878.09
2022-10-27T15:28:10.799Z,97876.09
2022-10-27T15:30:37.374Z,97837.75
2022-10-27T15:33:26.096Z,97874.69
2022-10-27T15:35:56.525Z,97862.59
2022-10-27T15:38:27.853Z,97863.50
2022-10-27T15:40:55.817Z,97851.88
2022-10-27T15:43:24.364Z,97864.06
2022-10-27T15:45:51.221Z,97877.06
2022-10-27T15:48:23.808Z,97865.38
2022-10-27T15:51:10.951Z,97852.19
2022-10-27T15:53:53.760Z,97853.53
2022-10-27T15:56:55.188Z,97870.84
2022-10-27T15:59:25.579Z,97833.63
2022-10-27T16:01:53.547Z,97853.19
2022-10-27T16:04:31.171Z,97851.47
2022-10-27T16:07:22.076Z,97859.84
2022-10-27T16:09:49.279Z,97869.84
2022-10-27T16:12:16.566Z,97842.88
2022-10-27T16:14:48.553Z,97879.84
2022-10-27T16:17:25.155Z,97879.41
2022-10-27T16:19:51.873Z,97861.06
2022-10-27T16:22:20.408Z,97854.78
2022-10-27T16:24:50.283Z,97864.22
2022-10-27T16:27:20.420Z,97882.19
2022-10-27T16:29:48.529Z,97877.59
2022-10-27T16:32:15.256Z,97857.78
2022-10-27T16:34:41.939Z,97864.56
2022-10-27T16:37:19.863Z,97894.09
2022-10-27T16:39:46.445Z,97854.19
2022-10-27T16:42:13.098Z,97898.94
2022-10-27T16:44:39.803Z,97892.25
2022-10-27T16:47:11.487Z,97873.41
2022-10-27T16:49:41.175Z,97869.78
2022-10-27T16:52:07.886Z,97876.34
2022-10-27T16:54:38.552Z,97874.44
2022-10-27T16:57:08.494Z,97862.94
2022-10-27T16:59:35.187Z,97875.94
2022-10-27T17:02:01.865Z,97875.97
2022-10-27T17:04:30.604Z,97874.41
2022-10-27T17:07:00.454Z,97919.53
2022-10-27T17:09:29.255Z,97885.88
2022-10-27T17:11:58.284Z,97874.56
2022-10-27T17:14:25.161Z,97877.28
2022-10-27T17:16:51.741Z,97888.41
2022-10-27T17:19:18.868Z,97880.31
2022-10-27T17:21:48.284Z,97890.34
2022-10-27T17:24:14.887Z,97891.47
2022-10-27T17:26:41.521Z,97893.88
2022-10-27T17:29:08.219Z,97886.34
2022-10-27T17:31:40.504Z,97890.16
2022-10-27T17:34:10.208Z,97879.69
2022-10-27T17:36:36.993Z,97868.41
2022-10-27T17:39:04.070Z,97890.03
2022-10-27T17:41:30.843Z,97885.16
2022-10-27T17:43:57.600Z,97876.81
2022-10-27T17:46:27.463Z,97900.59
2022-10-27T17:48:57.800Z,97894.44
2022-10-27T17:51:30.965Z,97894.97
2022-10-27T17:54:01.524Z,97882.28
2022-10-27T17:56:35.387Z,97909.28
2022-10-27T17:59:02.091Z,97902.00
2022-10-27T18:01:35.786Z,97913.34
2022-10-27T18:04:12.087Z,97903.38
2022-10-27T18:06:39.135Z,97900.44
2022-10-27T18:09:05.966Z,97877.78
2022-10-27T18:11:34.044Z,97915.00
2022-10-27T18:14:03.831Z,97906.94
2022-10-27T18:16:32.779Z,97912.88
2022-10-27T18:19:04.161Z,97899.38
2022-10-27T18:21:32.897Z,97919.31
2022-10-27T18:24:00.148Z,97924.19
2022-10-27T18:26:28.000Z,97917.16
2022-10-27T18:28:54.650Z,97901.81
2022-10-27T18:31:23.218Z,97891.31
2022-10-27T18:33:50.198Z,97920.94
2022-10-27T18:36:21.777Z,97919.59
2022-10-27T18:38:55.131Z,97930.94
2022-10-27T18:41:25.977Z,97912.84
2022-10-27T18:43:54.321Z,97915.53
2022-10-27T18:46:22.623Z,97895.31
2022-10-27T18:48:51.523Z,97908.50
2022-10-27T18:51:18.552Z,97911.69
2022-10-27T18:53:45.799Z,97924.63
2022-10-27T18:56:13.513Z,97904.22
2022-10-27T18:58:40.193Z,97914.94
2022-10-27T19:01:22.337Z,97912.50
2022-10-27T19:03:56.079Z,97924.63
2022-10-27T19:06:26.943Z,97913.06
2022-10-27T19:08:54.667Z,97903.88
2022-10-27T19:11:25.898Z,97909.78
2022-10-27T19:13:53.771Z,97903.28
2022-10-27T19:16:21.606Z,97904.59
2022-10-27T19:18:48.364Z,97904.38
2022-10-27T19:21:40.559Z,97904.88
2022-10-27T19:24:19.430Z,97893.84
2022-10-27T19:27:23.301Z,97918.88
2022-10-27T19:29:50.309Z,97903.78
2022-10-27T19:32:24.406Z,97909.72
2022-10-27T19:34:59.863Z,97901.06
2022-10-27T19:37:26.678Z,97911.56
2022-10-27T19:39:53.588Z,97913.44
2022-10-27T19:42:21.245Z,97895.41
2022-10-27T19:45:03.232Z,97891.09
2022-10-27T19:47:30.580Z,97902.91
2022-10-27T19:49:57.574Z,97925.81
2022-10-27T19:52:27.459Z,97901.56
2022-10-27T19:54:54.107Z,97913.41
2022-10-27T19:57:20.907Z,97909.03
2022-10-27T19:59:50.216Z,97920.31
2022-10-27T20:02:17.663Z,97915.22
2022-10-27T20:04:45.033Z,97884.50
2022-10-27T20:07:11.901Z,97902.28
2022-10-27T20:09:38.996Z,97906.03
2022-10-27T20:12:06.440Z,97908.47
2022-10-27T20:14:33.807Z,97899.38
2022-10-27T20:17:02.655Z,97908.25
2022-10-27T20:19:30.719Z,97907.16
2022-10-27T20:21:59.644Z,97923.56
2022-10-27T20:24:28.954Z,97924.56
2022-10-27T20:27:02.107Z,97891.47
2022-10-27T20:29:35.201Z,97901.41
2022-10-27T20:32:03.496Z,97939.38
2022-10-27T20:34:38.593Z,97921.50
2022-10-27T20:37:09.060Z,97914.19
2022-10-27T20:39:36.229Z,97934.97
2022-10-27T20:42:03.394Z,97922.88
2022-10-27T20:44:30.202Z,97913.16
2022-10-27T20:46:57.069Z,97897.25
2022-10-27T20:49:23.891Z,97927.09
2022-10-27T20:51:50.750Z,97901.78
2022-10-27T20:54:17.538Z,97917.09
2022-10-27T20:56:44.526Z,97914.16
2022-10-27T20:59:11.590Z,97919.25
2022-10-27T21:01:42.209Z,97917.94
2022-10-27T21:04:11.835Z,97912.19
2022-10-27T21:06:43.439Z,97935.38
2022-10-27T21:09:12.184Z,97901.97
2022-10-27T21:11:39.050Z,97891.72
2022-10-27T21:14:05.978Z,97919.66
2022-10-27T21:16:32.930Z,97990.06
2022-10-27T21:19:00.938Z,97906.22
2022-10-27T21:21:29.215Z,97918.56
2022-10-27T21:23:57.627Z,97908.84
2022-10-27T21:26:24.399Z,97893.28
2022-10-27T21:28:55.182Z,97902.44
2022-10-27T21:31:24.110Z,97902.88
2022-10-27T21:33:51.054Z,97915.69
2022-10-27T21:36:18.067Z,97897.06
2022-10-27T21:38:46.056Z,97896.78
2022-10-27T21:41:13.544Z,97894.91
2022-10-27T21:43:41.818Z,97880.09
2022-10-27T21:46:08.601Z,97879.09
2022-10-27T21:48:36.339Z,97895.78
2022-10-27T21:51:03.032Z,97890.41
2022-10-27T21:53:29.783Z,97777.97
2022-10-27T21:56:06.905Z,97894.78
2022-10-27T21:58:34.205Z,97891.53
2022-10-27T22:01:14.878Z,97859.25
2022-10-27T22:03:42.319Z,97896.66
2022-10-27T22:06:17.430Z,97890.13
2022-10-27T22:08:46.915Z,97910.91
2022-10-27T22:11:15.751Z,97895.00
2022-10-27T22:13:42.603Z,97884.84
2022-10-27T22:16:10.961Z,97901.59
2022-10-27T22:18:37.723Z,97911.50
2022-10-27T22:21:04.985Z,97910.81
2022-10-27T22:23:32.342Z,97915.88
2022-10-27T22:26:06.789Z,97943.84
2022-10-27T22:28:33.539Z,97927.47
2022-10-27T22:31:07.486Z,97921.84
2022-10-27T22:33:34.289Z,97923.53
2022-10-27T22:36:05.100Z,97912.91
2022-10-27T22:38:31.891Z,97926.03
2022-10-27T22:41:02.764Z,97899.66
2022-10-27T22:43:30.095Z,97917.47
2022-10-27T22:45:57.124Z,97915.28
2022-10-27T22:48:23.867Z,97908.69
2022-10-27T22:50:50.836Z,97913.47
2022-10-27T22:53:17.507Z,97913.69
2022-10-27T22:55:44.218Z,97891.31
2022-10-27T22:58:10.982Z,97883.34
2022-10-27T23:00:37.659Z,97900.25
2022-10-27T23:03:05.222Z,97895.38
2022-10-27T23:05:32.002Z,97900.16
2022-10-27T23:07:58.742Z,97875.84
2022-10-27T23:10:25.515Z,97887.00
2022-10-27T23:12:52.562Z,97885.84
2022-10-27T23:15:19.607Z,97899.44
2022-10-27T23:17:46.478Z,97907.34
2022-10-27T23:20:13.374Z,97911.34
2022-10-27T23:22:40.460Z,97915.00
2022-10-27T23:25:07.579Z,97900.09
2022-10-27T23:27:34.523Z,97917.25
2022-10-27T23:30:01.317Z,97911.97
2022-10-27T23:32:28.466Z,97898.25
2022-10-27T23:34:55.182Z,97918.63
2022-10-27T23:37:22.019Z,97919.44
2022-10-27T23:39:48.825Z,97933.84
2022-10-27T23:42:15.583Z,97921.19
2022-10-27T23:44:42.272Z,97919.31
2022-10-27T23:47:09.066Z,97911.69
2022-10-27T23:49:35.924Z,97927.56
2022-10-27T23:52:05.906Z,97918.22
2022-10-27T23:54:33.787Z,97896.75
2022-10-27T23:57:00.676Z,97919.59
2022-10-27T23:59:27.367Z,97925.88
